createdAt,value
2022-10-13T00:01:11.969Z,14.50
2022-10-13T00:03:39.934Z,14.40
2022-10-13T00:06:08.496Z,14.40
2022-10-13T00:08:36.080Z,14.40
2022-10-13T00:11:09.066Z,14.40
2022-10-13T00:13:35.859Z,14.40
2022-10-13T00:16:03.063Z,14.30
2022-10-13T00:18:30.495Z,14.30
2022-10-13T00:20:57.429Z,14.30
2022-10-13T00:23:24.712Z,14.30
2022-10-13T00:25:51.706Z,14.30
2022-10-13T00:28:19.349Z,14.20
2022-10-13T00:30:46.906Z,14.20
2022-10-13T00:33:13.942Z,14.10
2022-10-13T00:35:45.514Z,14.20
2022-10-13T00:38:15.259Z,14.10
2022-10-13T00:40:46.381Z,14.10
2022-10-13T00:43:24.098Z,14.10
2022-10-13T00:45:51.211Z,14.10
2022-10-13T00:48:24.008Z,14.00
2022-10-13T00:50:51.513Z,14.00
2022-10-13T00:53:19.942Z,14.00
2022-10-13T00:55:47.535Z,14.00
2022-10-13T00:58:16.388Z,14.00
2022-10-13T01:00:45.152Z,13.90
2022-10-13T01:03:17.023Z,13.90
2022-10-13T01:05:44.213Z,14.00
2022-10-13T01:08:11.340Z,13.90
2022-10-13T01:10:58.449Z,13.90
2022-10-13T01:13:36.144Z,13.90
2022-10-13T01:16:24.164Z,13.90
2022-10-13T01:18:51.261Z,13.90
2022-10-13T01:21:20.261Z,13.80
2022-10-13T01:24:22.781Z,13.80
2022-10-13T01:26:58.461Z,13.80
2022-10-13T01:29:44.088Z,13.70
2022-10-13T01:32:10.916Z,13.70
2022-10-13T01:34:44.584Z,13.70
2022-10-13T01:37:18.783Z,13.70
2022-10-13T01:39:45.620Z,13.60
2022-10-13T01:42:18.500Z,13.60
2022-10-13T01:44:49.290Z,13.60
2022-10-13T01:47:16.619Z,13.60
2022-10-13T01:49:45.149Z,13.60
2022-10-13T01:52:16.865Z,13.50
2022-10-13T01:54:47.642Z,13.50
2022-10-13T01:57:34.059Z,13.50
2022-10-13T02:00:13.190Z,13.50
2022-10-13T02:02:44.114Z,13.50
2022-10-13T02:05:11.043Z,13.40
2022-10-13T02:07:44.029Z,13.40
2022-10-13T02:10:27.489Z,13.30
2022-10-13T02:12:59.873Z,13.30
2022-10-13T02:15:36.859Z,13.30
2022-10-13T02:18:06.950Z,13.20
2022-10-13T02:20:33.766Z,13.30
2022-10-13T02:23:02.912Z,13.20
2022-10-13T02:25:30.477Z,13.30
2022-10-13T02:27:59.658Z,13.20
2022-10-13T02:30:30.103Z,13.20
2022-10-13T02:32:56.922Z,13.20
2022-10-13T02:35:23.744Z,13.10
2022-10-13T02:37:50.641Z,13.10
2022-10-13T02:40:17.468Z,13.10
2022-10-13T02:42:44.424Z,13.10
2022-10-13T02:45:11.259Z,13.10
2022-10-13T02:47:38.146Z,13.10
2022-10-13T02:50:05.298Z,13.00
2022-10-13T02:52:32.148Z,13.10
2022-10-13T02:54:58.915Z,13.10
2022-10-13T02:57:25.813Z,13.00
2022-10-13T02:59:52.753Z,13.00
2022-10-13T03:02:20.399Z,13.00
2022-10-13T03:04:47.824Z,13.00
2022-10-13T03:07:14.961Z,12.90
2022-10-13T03:09:41.874Z,12.90
2022-10-13T03:12:08.919Z,12.90
2022-10-13T03:14:35.748Z,12.90
2022-10-13T03:17:02.545Z,12.90
2022-10-13T03:19:29.525Z,12.90
2022-10-13T03:21:56.476Z,12.80
2022-10-13T03:24:23.321Z,12.80
2022-10-13T03:26:50.145Z,12.80
2022-10-13T03:29:20.274Z,12.80
2022-10-13T03:31:47.188Z,12.80
2022-10-13T03:34:15.672Z,12.80
2022-10-13T03:36:42.534Z,12.90
2022-10-13T03:39:09.555Z,13.00
2022-10-13T03:41:36.351Z,13.00
2022-10-13T03:44:03.239Z,13.10
2022-10-13T03:46:30.450Z,13.10
2022-10-13T03:48:58.403Z,13.10
2022-10-13T03:51:25.240Z,13.20
2022-10-13T03:53:52.670Z,13.10
2022-10-13T03:56:26.451Z,13.10
2022-10-13T03:58:55.517Z,13.10
2022-10-13T04:01:23.711Z,13.10
2022-10-13T04:03:50.863Z,13.10
2022-10-13T04:06:17.865Z,13.10
2022-10-13T04:08:44.784Z,13.10
2022-10-13T04:11:13.283Z,13.20
2022-10-13T04:13:41.555Z,13.20
2022-10-13T04:16:22.112Z,13.20
2022-10-13T04:18:54.197Z,13.20
2022-10-13T04:21:21.763Z,13.20
2022-10-13T04:23:48.521Z,13.20
2022-10-13T04:26:19.125Z,13.10
2022-10-13T04:28:46.642Z,13.10
2022-10-13T04:31:13.565Z,13.10
2022-10-13T04:33:40.467Z,13.10
2022-10-13T04:36:08.106Z,13.10
2022-10-13T04:38:35.022Z,13.00
2022-10-13T04:41:03.535Z,13.00
2022-10-13T04:43:30.796Z,13.10
2022-10-13T04:46:06.891Z,13.10
2022-10-13T04:48:33.732Z,13.10
2022-10-13T04:51:20.569Z,13.10
2022-10-13T04:53:47.771Z,13.20
2022-10-13T04:56:17.548Z,13.20
2022-10-13T04:58:45.172Z,13.20
2022-10-13T05:01:17.653Z,13.30
2022-10-13T05:03:50.639Z,13.30
2022-10-13T05:06:18.915Z,13.20
2022-10-13T05:08:48.604Z,13.20
2022-10-13T05:11:16.257Z,13.20
2022-10-13T05:13:43.336Z,13.20
2022-10-13T05:16:11.442Z,13.10
2022-10-13T05:18:38.675Z,13.10
2022-10-13T05:21:08.744Z,13.10
2022-10-13T05:23:37.477Z,13.10
2022-10-13T05:26:05.197Z,13.10
2022-10-13T05:28:32.222Z,13.10
2022-10-13T05:31:08.229Z,13.00
2022-10-13T05:33:35.028Z,13.00
2022-10-13T05:36:09.187Z,13.00
2022-10-13T05:38:37.580Z,13.00
2022-10-13T05:41:09.271Z,13.00
2022-10-13T05:43:36.337Z,13.00
2022-10-13T05:46:03.495Z,13.00
2022-10-13T05:48:30.728Z,13.10
2022-10-13T05:50:59.362Z,13.10
2022-10-13T05:53:27.996Z,13.20
2022-10-13T05:55:56.276Z,13.20
2022-10-13T05:58:23.423Z,13.30
2022-10-13T06:00:50.807Z,13.30
2022-10-13T06:03:19.188Z,13.30
2022-10-13T06:05:47.598Z,13.30
2022-10-13T06:08:14.989Z,13.30
2022-10-13T06:10:43.539Z,13.30
2022-10-13T06:13:10.376Z,13.30
2022-10-13T06:15:37.227Z,13.40
2022-10-13T06:18:08.116Z,13.40
2022-10-13T06:20:35.033Z,13.40
2022-10-13T06:23:01.819Z,13.40
2022-10-13T06:25:30.648Z,13.50
2022-10-13T06:27:57.692Z,13.50
2022-10-13T06:30:24.644Z,13.50
2022-10-13T06:32:53.085Z,13.50
2022-10-13T06:35:19.934Z,13.50
2022-10-13T06:37:48.641Z,13.50
2022-10-13T06:40:15.982Z,13.60
2022-10-13T06:42:42.746Z,13.60
2022-10-13T06:45:10.300Z,13.60
2022-10-13T06:47:39.945Z,13.60
2022-10-13T06:50:06.890Z,13.60
2022-10-13T06:52:33.685Z,13.70
2022-10-13T06:55:00.594Z,13.70
2022-10-13T06:57:29.309Z,13.70
2022-10-13T06:59:57.454Z,13.80
2022-10-13T07:02:24.270Z,13.80
2022-10-13T07:04:51.107Z,13.90
2022-10-13T07:07:17.849Z,13.90
2022-10-13T07:09:45.217Z,13.90
2022-10-13T07:12:13.188Z,14.00
2022-10-13T07:14:43.046Z,14.00
2022-10-13T07:17:11.127Z,14.00
2022-10-13T07:19:38.177Z,14.00
2022-10-13T07:22:04.996Z,14.00
2022-10-13T07:24:31.912Z,14.00
2022-10-13T07:27:00.190Z,14.10
2022-10-13T07:29:29.664Z,14.10
2022-10-13T07:31:56.449Z,14.10
2022-10-13T07:34:23.318Z,14.10
2022-10-13T07:36:50.187Z,14.10
2022-10-13T07:39:17.060Z,14.20
2022-10-13T07:41:48.717Z,14.30
2022-10-13T07:44:17.716Z,14.40
2022-10-13T07:46:44.565Z,14.50
2022-10-13T07:49:15.213Z,14.60
2022-10-13T07:51:44.363Z,14.80
2022-10-13T07:54:12.153Z,14.90
2022-10-13T07:56:39.494Z,15.10
2022-10-13T07:59:07.242Z,15.30
2022-10-13T08:01:34.121Z,15.50
2022-10-13T08:04:01.011Z,15.60
2022-10-13T08:06:27.907Z,15.70
2022-10-13T08:09:00.638Z,15.70
2022-10-13T08:11:27.921Z,15.80
2022-10-13T08:13:56.021Z,15.90
2022-10-13T08:16:22.997Z,15.90
2022-10-13T08:18:50.317Z,15.90
2022-10-13T08:21:57.075Z,16.00
2022-10-13T08:24:13.661Z,16.00
2022-10-13T08:26:41.959Z,16.10
2022-10-13T08:29:21.221Z,16.20
2022-10-13T08:34:18.480Z,16.40
2022-10-13T08:36:45.414Z,16.50
2022-10-13T08:39:13.047Z,16.50
2022-10-13T08:41:44.255Z,16.50
2022-10-13T08:45:10.498Z,16.50
2022-10-13T08:47:33.047Z,16.40
2022-10-13T08:50:02.079Z,16.40
2022-10-13T08:52:30.531Z,16.40
2022-10-13T08:54:58.884Z,16.40
2022-10-13T08:57:29.805Z,16.40
2022-10-13T08:59:56.680Z,16.50
2022-10-13T09:02:30.537Z,16.50
2022-10-13T09:05:04.581Z,16.60
2022-10-13T09:07:37.198Z,16.70
2022-10-13T09:10:04.687Z,16.70
2022-10-13T09:12:33.946Z,16.70
2022-10-13T09:15:06.064Z,16.80
2022-10-13T09:17:33.757Z,16.80
2022-10-13T09:20:19.806Z,16.90
2022-10-13T09:23:00.858Z,17.00
2022-10-13T09:25:29.243Z,17.00
2022-10-13T09:27:58.182Z,17.00
2022-10-13T09:30:25.985Z,17.10
2022-10-13T09:33:09.362Z,17.20
2022-10-13T09:35:37.773Z,17.20
2022-10-13T09:38:16.861Z,17.30
2022-10-13T09:40:55.730Z,17.40
2022-10-13T09:43:41.783Z,17.40
2022-10-13T09:46:31.991Z,17.50
2022-10-13T09:49:01.953Z,17.40
2022-10-13T09:51:42.837Z,17.50
2022-10-13T09:54:33.622Z,17.50
2022-10-13T09:57:03.884Z,17.70
2022-10-13T09:59:35.414Z,17.90
2022-10-13T10:02:24.996Z,18.10
2022-10-13T10:04:56.657Z,18.20
2022-10-13T10:07:27.534Z,18.50
2022-10-13T10:10:01.813Z,18.70
2022-10-13T10:12:30.232Z,18.80
2022-10-13T10:14:57.127Z,19.00
2022-10-13T10:17:30.110Z,19.10
2022-10-13T10:20:17.125Z,19.20
2022-10-13T10:22:44.110Z,19.20
2022-10-13T10:25:17.472Z,19.20
2022-10-13T10:27:50.455Z,19.30
2022-10-13T10:30:19.879Z,19.30
2022-10-13T10:32:54.044Z,19.40
2022-10-13T10:35:34.301Z,19.50
2022-10-13T10:38:01.172Z,19.70
2022-10-13T10:40:31.510Z,19.80
2022-10-13T10:43:36.897Z,19.90
2022-10-13T10:46:07.410Z,19.90
2022-10-13T10:48:35.894Z,20.00
2022-10-13T10:51:05.445Z,20.10
2022-10-13T10:53:51.703Z,20.10
2022-10-13T10:56:27.692Z,20.10
2022-10-13T10:58:59.968Z,20.10
2022-10-13T11:01:27.358Z,20.10
2022-10-13T11:04:00.504Z,20.10
2022-10-13T11:06:35.658Z,20.20
2022-10-13T11:09:03.244Z,20.20
2022-10-13T11:11:36.594Z,20.20
2022-10-13T11:14:09.939Z,20.30
2022-10-13T11:16:55.695Z,20.40
2022-10-13T11:19:30.481Z,20.50
2022-10-13T11:21:57.777Z,20.60
2022-10-13T11:24:48.138Z,20.60
2022-10-13T11:27:15.256Z,20.60
2022-10-13T11:29:57.855Z,20.60
2022-10-13T11:32:27.810Z,20.70
2022-10-13T11:35:03.178Z,20.80
2022-10-13T11:37:33.175Z,20.90
2022-10-13T11:40:11.894Z,21.00
2022-10-13T11:42:47.986Z,21.00
2022-10-13T11:45:23.867Z,21.00
2022-10-13T11:48:12.419Z,21.00
2022-10-13T11:50:46.363Z,21.00
2022-10-13T11:53:23.265Z,20.90
2022-10-13T11:55:54.616Z,20.90
2022-10-13T11:58:21.476Z,21.00
2022-10-13T12:00:54.425Z,21.00
2022-10-13T12:03:27.100Z,21.10
2022-10-13T12:05:57.951Z,21.20
2022-10-13T12:08:25.832Z,21.30
2022-10-13T12:10:56.355Z,21.30
2022-10-13T12:13:28.482Z,21.30
2022-10-13T12:16:03.764Z,21.20
2022-10-13T12:18:35.852Z,21.20
2022-10-13T12:21:04.335Z,21.10
2022-10-13T12:23:32.646Z,21.10
2022-10-13T12:26:00.218Z,21.10
2022-10-13T12:28:42.938Z,21.10
2022-10-13T12:31:17.451Z,21.20
2022-10-13T12:33:44.281Z,21.20
2022-10-13T12:36:17.063Z,21.20
2022-10-13T12:38:47.274Z,21.20
2022-10-13T12:41:16.715Z,21.20
2022-10-13T12:43:43.784Z,21.20
2022-10-13T12:46:10.919Z,21.20
2022-10-13T12:48:38.455Z,21.10
2022-10-13T12:51:31.803Z,21.10
2022-10-13T12:53:58.662Z,21.10
2022-10-13T12:56:29.422Z,21.00
2022-10-13T12:58:56.558Z,20.90
2022-10-13T13:01:33.540Z,20.90
2022-10-13T13:04:02.285Z,20.90
2022-10-13T13:06:33.735Z,20.80
2022-10-13T13:09:16.084Z,20.80
2022-10-13T13:11:44.310Z,20.80
2022-10-13T13:14:24.145Z,20.80
2022-10-13T13:17:09.879Z,20.70
2022-10-13T13:19:37.417Z,20.60
2022-10-13T13:22:05.343Z,20.60
2022-10-13T13:24:39.919Z,20.60
2022-10-13T13:27:15.594Z,20.60
2022-10-13T13:29:42.500Z,20.60
2022-10-13T13:32:12.173Z,20.50
2022-10-13T13:34:38.970Z,20.60
2022-10-13T13:37:05.780Z,20.60
2022-10-13T13:39:32.544Z,20.60
2022-10-13T13:41:59.341Z,20.70
2022-10-13T13:44:26.295Z,20.70
2022-10-13T13:46:53.147Z,20.70
2022-10-13T13:49:19.978Z,20.70
2022-10-13T13:51:46.754Z,20.60
2022-10-13T13:54:13.574Z,20.50
2022-10-13T13:56:40.503Z,20.50
2022-10-13T13:59:07.295Z,20.40
2022-10-13T14:01:34.215Z,20.30
2022-10-13T14:04:03.054Z,20.30
2022-10-13T14:06:29.940Z,20.20
2022-10-13T14:08:56.764Z,20.20
2022-10-13T14:11:23.638Z,20.10
2022-10-13T14:13:50.453Z,20.00
2022-10-13T14:16:25.711Z,20.00
2022-10-13T14:18:52.873Z,19.90
2022-10-13T14:21:20.073Z,19.80
2022-10-13T14:23:47.037Z,19.90
2022-10-13T14:26:14.161Z,19.80
2022-10-13T14:28:42.314Z,19.80
2022-10-13T14:31:09.634Z,19.80
2022-10-13T14:33:37.908Z,19.90
2022-10-13T14:36:06.530Z,19.80
2022-10-13T14:38:33.964Z,19.80
2022-10-13T14:41:01.654Z,19.80
2022-10-13T14:43:28.816Z,19.80
2022-10-13T14:45:55.961Z,19.70
2022-10-13T14:48:24.914Z,19.70
2022-10-13T14:50:51.816Z,19.60
2022-10-13T14:53:18.672Z,19.50
2022-10-13T14:55:45.503Z,19.40
2022-10-13T14:58:12.449Z,19.30
2022-10-13T15:00:39.506Z,19.30
2022-10-13T15:03:10.263Z,19.20
2022-10-13T15:05:37.075Z,19.10
2022-10-13T15:08:03.990Z,19.10
2022-10-13T15:10:31.190Z,19.10
2022-10-13T15:12:58.310Z,19.00
2022-10-13T15:15:25.555Z,19.00
2022-10-13T15:17:54.351Z,18.90
2022-10-13T15:20:21.172Z,18.90
2022-10-13T15:22:48.548Z,18.80
2022-10-13T15:25:15.449Z,18.80
2022-10-13T15:27:42.417Z,18.80
2022-10-13T15:30:09.827Z,18.80
2022-10-13T15:32:36.887Z,18.80
2022-10-13T15:35:04.186Z,18.70
2022-10-13T15:37:34.205Z,18.70
2022-10-13T15:40:01.302Z,18.70
2022-10-13T15:42:28.456Z,18.60
2022-10-13T15:45:11.677Z,18.60
2022-10-13T15:47:38.901Z,18.50
2022-10-13T15:50:06.144Z,18.40
2022-10-13T15:52:36.972Z,18.20
2022-10-13T15:55:04.103Z,18.10
2022-10-13T15:57:31.366Z,18.00
2022-10-13T16:00:01.801Z,17.80
2022-10-13T16:02:40.437Z,17.70
2022-10-13T16:05:08.261Z,17.60
2022-10-13T16:07:35.565Z,17.60
2022-10-13T16:10:05.105Z,17.50
2022-10-13T16:12:32.308Z,17.50
2022-10-13T16:14:59.217Z,17.50
2022-10-13T16:17:26.295Z,17.50
2022-10-13T16:19:53.571Z,17.40
2022-10-13T16:22:20.612Z,17.40
2022-10-13T16:24:47.911Z,17.40
2022-10-13T16:27:14.771Z,17.40
2022-10-13T16:29:41.748Z,17.30
2022-10-13T16:32:08.639Z,17.30
2022-10-13T16:34:35.660Z,17.30
2022-10-13T16:37:03.522Z,17.20
2022-10-13T16:39:30.573Z,17.20
2022-10-13T16:41:57.513Z,17.20
2022-10-13T16:44:25.040Z,17.20
2022-10-13T16:46:53.890Z,17.10
2022-10-13T16:49:20.695Z,17.00
2022-10-13T16:51:47.583Z,17.00
2022-10-13T16:54:14.467Z,17.00
2022-10-13T16:56:41.242Z,17.00
2022-10-13T16:59:08.090Z,17.00
2022-10-13T17:01:35.803Z,16.90
2022-10-13T17:04:03.671Z,16.90
2022-10-13T17:06:31.121Z,16.90
2022-10-13T17:08:58.789Z,16.80
2022-10-13T17:11:26.936Z,16.80
2022-10-13T17:13:55.523Z,16.80
2022-10-13T17:16:23.893Z,16.80
2022-10-13T17:18:50.749Z,16.80
2022-10-13T17:21:18.186Z,16.80
2022-10-13T17:23:48.602Z,16.70
2022-10-13T17:26:17.185Z,16.70
2022-10-13T17:28:44.943Z,16.70
2022-10-13T17:31:13.662Z,16.70
2022-10-13T17:33:41.056Z,16.60
2022-10-13T17:36:15.352Z,16.60
2022-10-13T17:38:43.156Z,16.60
2022-10-13T17:41:10.339Z,16.60
2022-10-13T17:43:41.973Z,16.50
2022-10-13T17:46:36.972Z,16.50
2022-10-13T17:49:03.409Z,16.60
2022-10-13T17:51:30.170Z,16.50
2022-10-13T17:53:58.917Z,16.50
2022-10-13T17:56:29.929Z,16.60
2022-10-13T17:58:57.095Z,16.60
2022-10-13T18:01:26.306Z,16.60
2022-10-13T18:03:55.470Z,16.60
2022-10-13T18:06:26.856Z,16.60
2022-10-13T18:08:53.736Z,16.60
2022-10-13T18:11:21.539Z,16.60
2022-10-13T18:13:48.600Z,16.60
2022-10-13T18:16:20.233Z,16.60
2022-10-13T18:18:47.559Z,16.50
2022-10-13T18:21:15.408Z,16.50
2022-10-13T18:23:45.420Z,16.50
2022-10-13T18:26:14.312Z,16.40
2022-10-13T18:28:43.580Z,16.30
2022-10-13T18:31:19.808Z,16.20
2022-10-13T18:33:46.906Z,16.20
2022-10-13T18:36:25.912Z,16.20
2022-10-13T18:38:53.892Z,16.10
2022-10-13T18:41:22.124Z,16.20
2022-10-13T18:43:49.188Z,16.10
2022-10-13T18:46:18.960Z,16.10
2022-10-13T18:48:47.700Z,16.10
2022-10-13T18:51:16.061Z,16.10
2022-10-13T18:53:44.069Z,16.10
2022-10-13T18:56:13.364Z,16.00
2022-10-13T18:58:41.111Z,16.00
2022-10-13T19:01:10.209Z,16.00
2022-10-13T19:03:37.898Z,15.90
2022-10-13T19:06:05.800Z,16.00
2022-10-13T19:08:32.845Z,16.00
2022-10-13T19:10:59.947Z,15.90
2022-10-13T19:13:27.817Z,16.00
2022-10-13T19:16:01.215Z,16.00
2022-10-13T19:18:28.195Z,16.00
2022-10-13T19:20:55.039Z,16.00
2022-10-13T19:23:22.254Z,16.00
2022-10-13T19:25:49.415Z,15.90
2022-10-13T19:28:17.378Z,15.90
2022-10-13T19:30:44.422Z,15.90
2022-10-13T19:33:11.824Z,15.90
2022-10-13T19:35:48.040Z,15.90
2022-10-13T19:38:15.609Z,15.90
2022-10-13T19:40:43.753Z,15.90
2022-10-13T19:43:10.626Z,15.90
2022-10-13T19:45:43.209Z,15.90
2022-10-13T19:48:11.228Z,15.90
2022-10-13T19:50:38.031Z,15.90
2022-10-13T19:53:04.842Z,15.90
2022-10-13T19:55:37.005Z,15.90
2022-10-13T19:58:03.869Z,15.90
2022-10-13T20:00:30.781Z,15.90
2022-10-13T20:02:57.737Z,15.90
2022-10-13T20:05:25.652Z,15.90
2022-10-13T20:07:52.668Z,16.00
2022-10-13T20:10:19.499Z,16.00
2022-10-13T20:12:46.392Z,16.00
2022-10-13T20:15:13.408Z,16.00
2022-10-13T20:17:42.714Z,16.00
2022-10-13T20:20:09.681Z,16.00
2022-10-13T20:22:36.638Z,16.00
2022-10-13T20:25:05.848Z,16.10
2022-10-13T20:27:32.729Z,16.00
2022-10-13T20:30:01.603Z,16.10
2022-10-13T20:32:28.736Z,16.10
2022-10-13T20:34:55.520Z,16.10
2022-10-13T20:37:23.025Z,16.10
2022-10-13T20:39:50.217Z,16.10
2022-10-13T20:42:17.366Z,16.10
2022-10-13T20:44:44.256Z,16.10
2022-10-13T20:47:11.095Z,16.10
2022-10-13T20:49:38.036Z,16.10
2022-10-13T20:52:05.037Z,16.10
2022-10-13T20:54:31.810Z,16.10
2022-10-13T20:56:58.748Z,16.00
2022-10-13T20:59:25.694Z,16.10
2022-10-13T21:01:52.791Z,16.00
2022-10-13T21:04:19.643Z,16.00
2022-10-13T21:06:46.487Z,16.00
2022-10-13T21:09:13.286Z,16.00
2022-10-13T21:11:41.851Z,16.00
2022-10-13T21:14:09.807Z,16.00
2022-10-13T21:16:36.802Z,15.90
2022-10-13T21:19:08.499Z,16.00
2022-10-13T21:21:36.296Z,16.00
2022-10-13T21:24:07.145Z,15.90
2022-10-13T21:26:34.750Z,16.00
2022-10-13T21:29:02.007Z,15.90
2022-10-13T21:31:30.325Z,15.90
2022-10-13T21:33:57.484Z,16.00
2022-10-13T21:36:28.766Z,15.90
2022-10-13T21:38:57.204Z,15.90
2022-10-13T21:41:24.505Z,15.90
2022-10-13T21:43:51.666Z,15.90
2022-10-13T21:46:25.503Z,15.90
2022-10-13T21:48:53.647Z,15.90
2022-10-13T21:51:20.402Z,15.90
2022-10-13T21:53:51.463Z,15.90
2022-10-13T21:56:19.176Z,15.90
2022-10-13T21:58:46.014Z,15.90
2022-10-13T22:01:13.432Z,15.90
2022-10-13T22:03:41.699Z,15.90
2022-10-13T22:06:19.199Z,15.90
2022-10-13T22:08:48.438Z,16.00
2022-10-13T22:11:21.356Z,15.90
2022-10-13T22:13:48.261Z,16.00
2022-10-13T22:16:22.921Z,15.90
2022-10-13T22:18:53.843Z,15.90
2022-10-13T22:21:22.335Z,15.90
2022-10-13T22:23:49.432Z,15.90
2022-10-13T22:26:17.057Z,15.90
2022-10-13T22:28:48.259Z,16.00
2022-10-13T22:31:15.142Z,15.90
2022-10-13T22:33:42.932Z,15.90
2022-10-13T22:36:14.747Z,15.90
2022-10-13T22:38:41.739Z,16.00
2022-10-13T22:41:08.717Z,16.00
2022-10-13T22:43:36.027Z,15.90
2022-10-13T22:46:12.245Z,15.90
2022-10-13T22:48:40.902Z,16.00
2022-10-13T22:51:12.194Z,16.00
2022-10-13T22:53:38.986Z,16.00
2022-10-13T22:56:07.406Z,15.90
2022-10-13T22:58:37.376Z,16.00
2022-10-13T23:01:05.404Z,16.00
2022-10-13T23:03:32.243Z,16.00
2022-10-13T23:06:01.814Z,16.00
2022-10-13T23:08:28.588Z,16.00
2022-10-13T23:10:55.437Z,16.00
2022-10-13T23:13:22.280Z,16.00
2022-10-13T23:15:50.402Z,16.00
2022-10-13T23:18:17.308Z,16.00
2022-10-13T23:20:44.068Z,16.00
2022-10-13T23:23:13.593Z,16.00
2022-10-13T23:25:40.351Z,16.00
2022-10-13T23:28:07.149Z,16.00
2022-10-13T23:30:33.998Z,16.00
2022-10-13T23:33:00.981Z,16.00
2022-10-13T23:35:27.889Z,16.00
2022-10-13T23:37:54.922Z,16.00
2022-10-13T23:40:21.701Z,16.00
2022-10-13T23:42:48.511Z,16.00
2022-10-13T23:45:15.468Z,16.10
2022-10-13T23:47:42.258Z,16.00
2022-10-13T23:50:09.297Z,16.00
2022-10-13T23:52:36.216Z,16.10
2022-10-13T23:55:03.283Z,16.00
2022-10-13T23:57:30.191Z,16.00
2022-10-13T23:59:56.985Z,16.00
